sensor_id;sensor_type;location;lat;lon;timestamp;P1;durP1;ratioP1;P2;durP2;ratioP2
58581;SDS011;44361;51.476;5.700;2023-07-16T00:02:22;6.68;;;3.47;;
58581;SDS011;44361;51.476;5.700;2023-07-16T00:04:47;11.13;;;3.83;;
58581;SDS011;44361;51.476;5.700;2023-07-16T00:07:13;8.52;;;3.80;;
58581;SDS011;44361;51.476;5.700;2023-07-16T00:09:39;12.00;;;4.30;;
58581;SDS011;44361;51.476;5.700;2023-07-16T00:12:04;7.03;;;3.28;;
58581;SDS011;44361;51.476;5.700;2023-07-16T00:14:30;6.63;;;3.92;;
58581;SDS011;44361;51.476;5.700;2023-07-16T00:16:57;7.65;;;4.05;;
58581;SDS011;44361;51.476;5.700;2023-07-16T00:19:23;6.28;;;3.85;;
58581;SDS011;44361;51.476;5.700;2023-07-16T00:21:48;8.95;;;4.50;;
58581;SDS011;44361;51.476;5.700;2023-07-16T00:24:14;6.65;;;3.88;;
58581;SDS011;44361;51.476;5.700;2023-07-16T00:26:39;9.55;;;3.72;;
58581;SDS011;44361;51.476;5.700;2023-07-16T00:29:05;8.15;;;3.83;;
58581;SDS011;44361;51.476;5.700;2023-07-16T00:31:30;9.68;;;3.92;;
58581;SDS011;44361;51.476;5.700;2023-07-16T00:33:56;17.42;;;4.60;;
58581;SDS011;44361;51.476;5.700;2023-07-16T00:36:21;9.63;;;4.05;;
58581;SDS011;44361;51.476;5.700;2023-07-16T00:38:47;8.73;;;4.10;;
58581;SDS011;44361;51.476;5.700;2023-07-16T00:41:13;12.13;;;4.30;;
58581;SDS011;44361;51.476;5.700;2023-07-16T00:43:39;9.05;;;3.92;;
58581;SDS011;44361;51.476;5.700;2023-07-16T00:46:05;9.68;;;4.13;;
58581;SDS011;44361;51.476;5.700;2023-07-16T00:48:30;9.80;;;4.25;;
58581;SDS011;44361;51.476;5.700;2023-07-16T00:50:56;11.63;;;4.13;;
58581;SDS011;44361;51.476;5.700;2023-07-16T00:53:22;8.15;;;4.70;;
58581;SDS011;44361;51.476;5.700;2023-07-16T00:55:48;8.25;;;4.45;;
58581;SDS011;44361;51.476;5.700;2023-07-16T00:58:14;8.98;;;4.10;;
58581;SDS011;44361;51.476;5.700;2023-07-16T01:00:39;7.68;;;4.30;;
58581;SDS011;44361;51.476;5.700;2023-07-16T01:03:07;11.88;;;4.57;;
58581;SDS011;44361;51.476;5.700;2023-07-16T01:05:45;14.82;;;4.68;;
58581;SDS011;44361;51.476;5.700;2023-07-16T01:08:32;10.32;;;4.60;;
58581;SDS011;44361;51.476;5.700;2023-07-16T01:11:03;11.10;;;4.43;;
58581;SDS011;44361;51.476;5.700;2023-07-16T01:13:29;10.57;;;4.40;;
58581;SDS011;44361;51.476;5.700;2023-07-16T01:15:56;15.50;;;4.93;;
58581;SDS011;44361;51.476;5.700;2023-07-16T01:18:22;10.48;;;4.50;;
58581;SDS011;44361;51.476;5.700;2023-07-16T01:20:48;11.60;;;4.35;;
58581;SDS011;44361;51.476;5.700;2023-07-16T01:23:24;8.50;;;3.78;;
58581;SDS011;44361;51.476;5.700;2023-07-16T01:26:28;12.45;;;4.10;;
58581;SDS011;44361;51.476;5.700;2023-07-16T01:29:13;11.48;;;3.92;;
58581;SDS011;44361;51.476;5.700;2023-07-16T01:31:57;9.10;;;4.10;;
58581;SDS011;44361;51.476;5.700;2023-07-16T01:34:25;11.27;;;4.07;;
58581;SDS011;44361;51.476;5.700;2023-07-16T01:36:53;9.75;;;3.50;;
58581;SDS011;44361;51.476;5.700;2023-07-16T01:39:19;8.93;;;3.67;;
58581;SDS011;44361;51.476;5.700;2023-07-16T01:41:45;6.82;;;3.50;;
58581;SDS011;44361;51.476;5.700;2023-07-16T01:44:10;12.55;;;3.97;;
58581;SDS011;44361;51.476;5.700;2023-07-16T01:46:36;11.68;;;3.40;;
58581;SDS011;44361;51.476;5.700;2023-07-16T01:49:01;10.23;;;3.63;;
58581;SDS011;44361;51.476;5.700;2023-07-16T01:51:27;10.35;;;3.22;;
58581;SDS011;44361;51.476;5.700;2023-07-16T01:53:53;10.43;;;3.80;;
58581;SDS011;44361;51.476;5.700;2023-07-16T01:56:18;10.23;;;3.45;;
58581;SDS011;44361;51.476;5.700;2023-07-16T01:58:44;6.65;;;3.53;;
58581;SDS011;44361;51.476;5.700;2023-07-16T02:01:09;6.53;;;3.50;;
58581;SDS011;44361;51.476;5.700;2023-07-16T02:03:35;9.20;;;3.60;;
58581;SDS011;44361;51.476;5.700;2023-07-16T02:06:00;8.20;;;3.90;;
58581;SDS011;44361;51.476;5.700;2023-07-16T02:08:26;6.35;;;2.97;;
58581;SDS011;44361;51.476;5.700;2023-07-16T02:10:51;12.93;;;4.10;;
58581;SDS011;44361;51.476;5.700;2023-07-16T02:13:17;9.82;;;3.42;;
58581;SDS011;44361;51.476;5.700;2023-07-16T02:15:42;8.25;;;3.78;;
58581;SDS011;44361;51.476;5.700;2023-07-16T02:18:08;10.05;;;3.53;;
58581;SDS011;44361;51.476;5.700;2023-07-16T02:20:34;12.25;;;4.22;;
58581;SDS011;44361;51.476;5.700;2023-07-16T02:23:00;8.02;;;4.00;;
58581;SDS011;44361;51.476;5.700;2023-07-16T02:25:25;9.80;;;3.95;;
58581;SDS011;44361;51.476;5.700;2023-07-16T02:27:51;10.35;;;3.75;;
58581;SDS011;44361;51.476;5.700;2023-07-16T02:30:17;14.25;;;3.60;;
58581;SDS011;44361;51.476;5.700;2023-07-16T02:32:42;13.38;;;3.83;;
58581;SDS011;44361;51.476;5.700;2023-07-16T02:35:08;14.88;;;4.20;;
58581;SDS011;44361;51.476;5.700;2023-07-16T02:37:34;12.35;;;4.25;;
58581;SDS011;44361;51.476;5.700;2023-07-16T02:40:00;7.40;;;3.85;;
58581;SDS011;44361;51.476;5.700;2023-07-16T02:42:26;12.27;;;4.47;;
58581;SDS011;44361;51.476;5.700;2023-07-16T02:44:51;11.20;;;4.35;;
58581;SDS011;44361;51.476;5.700;2023-07-16T02:47:17;7.72;;;3.85;;
58581;SDS011;44361;51.476;5.700;2023-07-16T02:49:42;9.27;;;3.15;;
58581;SDS011;44361;51.476;5.700;2023-07-16T02:52:08;13.48;;;4.07;;
58581;SDS011;44361;51.476;5.700;2023-07-16T02:54:35;8.20;;;3.38;;
58581;SDS011;44361;51.476;5.700;2023-07-16T02:57:01;11.23;;;3.63;;
58581;SDS011;44361;51.476;5.700;2023-07-16T02:59:27;15.57;;;4.25;;
58581;SDS011;44361;51.476;5.700;2023-07-16T03:01:53;7.93;;;3.63;;
58581;SDS011;44361;51.476;5.700;2023-07-16T03:04:18;10.65;;;3.47;;
58581;SDS011;44361;51.476;5.700;2023-07-16T03:06:44;9.82;;;3.67;;
58581;SDS011;44361;51.476;5.700;2023-07-16T03:09:09;9.43;;;3.40;;
58581;SDS011;44361;51.476;5.700;2023-07-16T03:11:35;9.15;;;3.22;;
58581;SDS011;44361;51.476;5.700;2023-07-16T03:14:01;10.05;;;3.63;;
58581;SDS011;44361;51.476;5.700;2023-07-16T03:16:26;8.68;;;3.83;;
58581;SDS011;44361;51.476;5.700;2023-07-16T03:18:52;12.55;;;4.13;;
58581;SDS011;44361;51.476;5.700;2023-07-16T03:21:18;13.57;;;3.47;;
58581;SDS011;44361;51.476;5.700;2023-07-16T03:23:43;10.85;;;3.90;;
58581;SDS011;44361;51.476;5.700;2023-07-16T03:26:09;10.45;;;3.10;;
58581;SDS011;44361;51.476;5.700;2023-07-16T03:28:34;6.90;;;3.47;;
58581;SDS011;44361;51.476;5.700;2023-07-16T03:31:00;8.63;;;3.13;;
58581;SDS011;44361;51.476;5.700;2023-07-16T03:33:26;10.05;;;4.22;;
58581;SDS011;44361;51.476;5.700;2023-07-16T03:35:51;9.88;;;3.33;;
58581;SDS011;44361;51.476;5.700;2023-07-16T03:38:17;10.77;;;3.72;;
58581;SDS011;44361;51.476;5.700;2023-07-16T03:40:45;10.65;;;3.72;;
58581;SDS011;44361;51.476;5.700;2023-07-16T03:43:12;9.05;;;3.08;;
58581;SDS011;44361;51.476;5.700;2023-07-16T03:45:38;10.63;;;3.10;;
58581;SDS011;44361;51.476;5.700;2023-07-16T03:48:04;15.25;;;3.42;;
58581;SDS011;44361;51.476;5.700;2023-07-16T03:50:30;8.15;;;3.03;;
58581;SDS011;44361;51.476;5.700;2023-07-16T03:52:55;11.30;;;2.83;;
58581;SDS011;44361;51.476;5.700;2023-07-16T03:55:21;11.27;;;2.83;;
58581;SDS011;44361;51.476;5.700;2023-07-16T03:57:47;7.47;;;2.83;;
58581;SDS011;44361;51.476;5.700;2023-07-16T04:00:12;14.25;;;3.15;;
58581;SDS011;44361;51.476;5.700;2023-07-16T04:02:39;5.90;;;2.78;;
58581;SDS011;44361;51.476;5.700;2023-07-16T04:05:05;11.63;;;3.58;;
58581;SDS011;44361;51.476;5.700;2023-07-16T04:07:31;14.75;;;3.22;;
58581;SDS011;44361;51.476;5.700;2023-07-16T04:09:56;12.23;;;3.58;;
58581;SDS011;44361;51.476;5.700;2023-07-16T04:12:22;7.28;;;3.08;;
58581;SDS011;44361;51.476;5.700;2023-07-16T04:14:47;11.98;;;4.53;;
58581;SDS011;44361;51.476;5.700;2023-07-16T04:17:13;12.05;;;4.00;;
58581;SDS011;44361;51.476;5.700;2023-07-16T04:19:38;11.50;;;3.47;;
58581;SDS011;44361;51.476;5.700;2023-07-16T04:22:04;11.18;;;4.25;;
58581;SDS011;44361;51.476;5.700;2023-07-16T04:24:30;6.85;;;3.53;;
58581;SDS011;44361;51.476;5.700;2023-07-16T04:26:55;11.32;;;3.20;;
58581;SDS011;44361;51.476;5.700;2023-07-16T04:29:23;10.32;;;4.30;;
58581;SDS011;44361;51.476;5.700;2023-07-16T04:31:48;9.23;;;3.90;;
58581;SDS011;44361;51.476;5.700;2023-07-16T04:34:14;14.77;;;4.38;;
58581;SDS011;44361;51.476;5.700;2023-07-16T04:36:41;14.77;;;3.95;;
58581;SDS011;44361;51.476;5.700;2023-07-16T04:39:07;11.43;;;3.83;;
58581;SDS011;44361;51.476;5.700;2023-07-16T04:41:32;15.27;;;4.25;;
58581;SDS011;44361;51.476;5.700;2023-07-16T04:43:58;14.90;;;4.43;;
58581;SDS011;44361;51.476;5.700;2023-07-16T04:46:24;14.30;;;4.07;;
58581;SDS011;44361;51.476;5.700;2023-07-16T04:48:49;11.48;;;3.50;;
58581;SDS011;44361;51.476;5.700;2023-07-16T04:51:15;14.05;;;4.90;;
58581;SDS011;44361;51.476;5.700;2023-07-16T04:53:40;15.50;;;4.30;;
58581;SDS011;44361;51.476;5.700;2023-07-16T04:56:10;12.55;;;4.10;;
58581;SDS011;44361;51.476;5.700;2023-07-16T04:58:40;14.97;;;3.87;;
58581;SDS011;44361;51.476;5.700;2023-07-16T05:01:06;7.78;;;3.92;;
58581;SDS011;44361;51.476;5.700;2023-07-16T05:03:32;10.98;;;3.97;;
58581;SDS011;44361;51.476;5.700;2023-07-16T05:05:58;7.93;;;4.10;;
58581;SDS011;44361;51.476;5.700;2023-07-16T05:08:23;19.90;;;4.53;;
58581;SDS011;44361;51.476;5.700;2023-07-16T05:10:49;11.93;;;3.92;;
58581;SDS011;44361;51.476;5.700;2023-07-16T05:13:15;12.82;;;3.67;;
58581;SDS011;44361;51.476;5.700;2023-07-16T05:15:40;10.88;;;4.25;;
58581;SDS011;44361;51.476;5.700;2023-07-16T05:18:08;13.73;;;4.32;;
58581;SDS011;44361;51.476;5.700;2023-07-16T05:20:34;11.50;;;3.40;;
58581;SDS011;44361;51.476;5.700;2023-07-16T05:22:59;15.73;;;3.67;;
58581;SDS011;44361;51.476;5.700;2023-07-16T05:25:25;10.32;;;3.17;;
58581;SDS011;44361;51.476;5.700;2023-07-16T05:27:50;8.90;;;3.38;;
58581;SDS011;44361;51.476;5.700;2023-07-16T05:30:16;14.00;;;3.60;;
58581;SDS011;44361;51.476;5.700;2023-07-16T05:32:41;10.98;;;3.90;;
58581;SDS011;44361;51.476;5.700;2023-07-16T05:35:07;12.23;;;3.78;;
58581;SDS011;44361;51.476;5.700;2023-07-16T05:37:32;11.55;;;3.22;;
58581;SDS011;44361;51.476;5.700;2023-07-16T05:39:58;10.57;;;3.58;;
58581;SDS011;44361;51.476;5.700;2023-07-16T05:42:23;10.23;;;3.72;;
58581;SDS011;44361;51.476;5.700;2023-07-16T05:44:49;9.18;;;3.30;;
58581;SDS011;44361;51.476;5.700;2023-07-16T05:47:14;7.00;;;2.90;;
58581;SDS011;44361;51.476;5.700;2023-07-16T05:49:40;8.07;;;3.55;;
58581;SDS011;44361;51.476;5.700;2023-07-16T05:52:06;9.75;;;3.72;;
58581;SDS011;44361;51.476;5.700;2023-07-16T05:54:32;7.43;;;3.22;;
58581;SDS011;44361;51.476;5.700;2023-07-16T05:56:57;9.65;;;4.03;;
58581;SDS011;44361;51.476;5.700;2023-07-16T05:59:23;9.80;;;3.80;;
58581;SDS011;44361;51.476;5.700;2023-07-16T06:01:48;11.73;;;4.07;;
58581;SDS011;44361;51.476;5.700;2023-07-16T06:04:14;13.13;;;3.75;;
58581;SDS011;44361;51.476;5.700;2023-07-16T06:06:39;10.73;;;3.33;;
58581;SDS011;44361;51.476;5.700;2023-07-16T06:09:05;11.13;;;3.35;;
58581;SDS011;44361;51.476;5.700;2023-07-16T06:11:30;9.73;;;3.53;;
58581;SDS011;44361;51.476;5.700;2023-07-16T06:13:56;10.00;;;3.53;;
58581;SDS011;44361;51.476;5.700;2023-07-16T06:16:21;8.98;;;3.30;;
58581;SDS011;44361;51.476;5.700;2023-07-16T06:18:47;8.70;;;4.10;;
58581;SDS011;44361;51.476;5.700;2023-07-16T06:21:13;9.80;;;3.67;;
58581;SDS011;44361;51.476;5.700;2023-07-16T06:23:38;9.95;;;3.35;;
58581;SDS011;44361;51.476;5.700;2023-07-16T06:26:04;8.32;;;3.42;;
58581;SDS011;44361;51.476;5.700;2023-07-16T06:28:30;11.00;;;3.75;;
58581;SDS011;44361;51.476;5.700;2023-07-16T06:30:55;9.75;;;4.20;;
58581;SDS011;44361;51.476;5.700;2023-07-16T06:33:21;11.95;;;4.03;;
58581;SDS011;44361;51.476;5.700;2023-07-16T06:35:47;11.57;;;3.97;;
58581;SDS011;44361;51.476;5.700;2023-07-16T06:38:13;11.43;;;3.63;;
58581;SDS011;44361;51.476;5.700;2023-07-16T06:40:39;10.23;;;3.60;;
58581;SDS011;44361;51.476;5.700;2023-07-16T06:43:10;13.90;;;4.40;;
58581;SDS011;44361;51.476;5.700;2023-07-16T06:45:36;12.48;;;4.50;;
58581;SDS011;44361;51.476;5.700;2023-07-16T06:48:01;8.23;;;4.18;;
58581;SDS011;44361;51.476;5.700;2023-07-16T06:50:27;12.98;;;3.90;;
58581;SDS011;44361;51.476;5.700;2023-07-16T06:52:52;8.75;;;4.97;;
58581;SDS011;44361;51.476;5.700;2023-07-16T06:55:18;15.00;;;4.72;;
58581;SDS011;44361;51.476;5.700;2023-07-16T06:57:43;9.80;;;4.60;;
58581;SDS011;44361;51.476;5.700;2023-07-16T07:00:09;11.68;;;4.32;;
58581;SDS011;44361;51.476;5.700;2023-07-16T07:02:36;17.20;;;4.78;;
58581;SDS011;44361;51.476;5.700;2023-07-16T07:05:01;9.25;;;4.50;;
58581;SDS011;44361;51.476;5.700;2023-07-16T07:07:27;12.63;;;5.07;;
58581;SDS011;44361;51.476;5.700;2023-07-16T07:09:52;12.23;;;4.65;;
58581;SDS011;44361;51.476;5.700;2023-07-16T07:12:18;19.13;;;5.85;;
58581;SDS011;44361;51.476;5.700;2023-07-16T07:14:43;13.32;;;4.97;;
58581;SDS011;44361;51.476;5.700;2023-07-16T07:17:09;17.45;;;5.50;;
58581;SDS011;44361;51.476;5.700;2023-07-16T07:19:34;9.32;;;5.25;;
58581;SDS011;44361;51.476;5.700;2023-07-16T07:22:00;12.43;;;5.65;;
58581;SDS011;44361;51.476;5.700;2023-07-16T07:24:25;12.02;;;4.68;;
58581;SDS011;44361;51.476;5.700;2023-07-16T07:26:51;18.48;;;5.25;;
58581;SDS011;44361;51.476;5.700;2023-07-16T07:29:16;16.88;;;5.50;;
58581;SDS011;44361;51.476;5.700;2023-07-16T07:31:42;10.75;;;4.57;;
58581;SDS011;44361;51.476;5.700;2023-07-16T07:34:07;13.00;;;4.80;;
58581;SDS011;44361;51.476;5.700;2023-07-16T07:36:33;11.73;;;4.90;;
58581;SDS011;44361;51.476;5.700;2023-07-16T07:38:58;10.60;;;4.70;;
58581;SDS011;44361;51.476;5.700;2023-07-16T07:41:24;11.25;;;4.28;;
58581;SDS011;44361;51.476;5.700;2023-07-16T07:43:49;9.98;;;5.22;;
58581;SDS011;44361;51.476;5.700;2023-07-16T07:46:15;9.90;;;4.85;;
58581;SDS011;44361;51.476;5.700;2023-07-16T07:48:40;11.77;;;4.90;;
58581;SDS011;44361;51.476;5.700;2023-07-16T07:51:06;14.05;;;4.80;;
58581;SDS011;44361;51.476;5.700;2023-07-16T07:53:31;12.20;;;5.03;;
58581;SDS011;44361;51.476;5.700;2023-07-16T07:55:57;8.75;;;4.70;;
58581;SDS011;44361;51.476;5.700;2023-07-16T07:58:23;12.98;;;4.72;;
58581;SDS011;44361;51.476;5.700;2023-07-16T08:00:48;9.38;;;4.60;;
58581;SDS011;44361;51.476;5.700;2023-07-16T08:03:14;12.70;;;4.78;;
58581;SDS011;44361;51.476;5.700;2023-07-16T08:05:39;11.75;;;5.18;;
58581;SDS011;44361;51.476;5.700;2023-07-16T08:08:05;13.02;;;4.55;;
58581;SDS011;44361;51.476;5.700;2023-07-16T08:10:30;10.40;;;4.53;;
58581;SDS011;44361;51.476;5.700;2023-07-16T08:12:56;9.65;;;4.50;;
58581;SDS011;44361;51.476;5.700;2023-07-16T08:15:21;10.75;;;4.63;;
58581;SDS011;44361;51.476;5.700;2023-07-16T08:17:47;10.43;;;4.18;;
58581;SDS011;44361;51.476;5.700;2023-07-16T08:20:13;10.25;;;3.97;;
58581;SDS011;44361;51.476;5.700;2023-07-16T08:22:39;11.85;;;4.88;;
58581;SDS011;44361;51.476;5.700;2023-07-16T08:25:05;10.95;;;4.32;;
58581;SDS011;44361;51.476;5.700;2023-07-16T08:27:31;12.63;;;4.32;;
58581;SDS011;44361;51.476;5.700;2023-07-16T08:30:00;8.95;;;4.03;;
58581;SDS011;44361;51.476;5.700;2023-07-16T08:32:26;7.68;;;4.20;;
58581;SDS011;44361;51.476;5.700;2023-07-16T08:34:51;8.80;;;3.83;;
58581;SDS011;44361;51.476;5.700;2023-07-16T08:37:17;19.02;;;4.32;;
58581;SDS011;44361;51.476;5.700;2023-07-16T08:39:42;9.88;;;3.90;;
58581;SDS011;44361;51.476;5.700;2023-07-16T08:42:09;6.70;;;3.63;;
58581;SDS011;44361;51.476;5.700;2023-07-16T08:44:36;10.85;;;3.95;;
58581;SDS011;44361;51.476;5.700;2023-07-16T08:47:03;8.38;;;4.03;;
58581;SDS011;44361;51.476;5.700;2023-07-16T08:49:29;12.30;;;3.90;;
58581;SDS011;44361;51.476;5.700;2023-07-16T08:51:55;8.82;;;4.25;;
58581;SDS011;44361;51.476;5.700;2023-07-16T08:54:22;9.32;;;4.30;;
58581;SDS011;44361;51.476;5.700;2023-07-16T08:56:49;9.05;;;4.22;;
58581;SDS011;44361;51.476;5.700;2023-07-16T08:59:16;10.25;;;3.78;;
58581;SDS011;44361;51.476;5.700;2023-07-16T09:01:43;13.73;;;3.50;;
58581;SDS011;44361;51.476;5.700;2023-07-16T09:04:09;8.07;;;3.72;;
58581;SDS011;44361;51.476;5.700;2023-07-16T09:06:34;9.95;;;3.80;;
58581;SDS011;44361;51.476;5.700;2023-07-16T09:09:00;6.72;;;2.97;;
58581;SDS011;44361;51.476;5.700;2023-07-16T09:11:25;10.93;;;3.55;;
58581;SDS011;44361;51.476;5.700;2023-07-16T09:13:52;11.88;;;3.65;;
58581;SDS011;44361;51.476;5.700;2023-07-16T09:16:18;8.50;;;3.88;;
58581;SDS011;44361;51.476;5.700;2023-07-16T09:18:44;8.95;;;3.55;;
58581;SDS011;44361;51.476;5.700;2023-07-16T09:21:10;12.40;;;4.07;;
58581;SDS011;44361;51.476;5.700;2023-07-16T09:23:36;7.03;;;3.30;;
58581;SDS011;44361;51.476;5.700;2023-07-16T09:26:02;9.07;;;3.55;;
58581;SDS011;44361;51.476;5.700;2023-07-16T09:28:29;7.47;;;3.30;;
58581;SDS011;44361;51.476;5.700;2023-07-16T09:30:55;8.70;;;3.83;;
58581;SDS011;44361;51.476;5.700;2023-07-16T09:33:27;7.88;;;3.15;;
58581;SDS011;44361;51.476;5.700;2023-07-16T09:35:53;10.13;;;3.67;;
58581;SDS011;44361;51.476;5.700;2023-07-16T09:38:18;11.57;;;3.47;;
58581;SDS011;44361;51.476;5.700;2023-07-16T09:40:45;8.80;;;3.63;;
58581;SDS011;44361;51.476;5.700;2023-07-16T09:43:11;9.23;;;3.58;;
58581;SDS011;44361;51.476;5.700;2023-07-16T09:45:37;9.40;;;3.60;;
58581;SDS011;44361;51.476;5.700;2023-07-16T09:48:03;9.43;;;2.92;;
58581;SDS011;44361;51.476;5.700;2023-07-16T09:50:30;7.93;;;3.05;;
58581;SDS011;44361;51.476;5.700;2023-07-16T09:52:58;8.65;;;2.88;;
58581;SDS011;44361;51.476;5.700;2023-07-16T09:55:24;5.78;;;2.88;;
58581;SDS011;44361;51.476;5.700;2023-07-16T09:57:55;5.53;;;2.72;;
58581;SDS011;44361;51.476;5.700;2023-07-16T10:00:22;9.93;;;2.90;;
58581;SDS011;44361;51.476;5.700;2023-07-16T10:02:49;7.60;;;2.83;;
58581;SDS011;44361;51.476;5.700;2023-07-16T10:07:57;9.00;;;2.97;;
58581;SDS011;44361;51.476;5.700;2023-07-16T10:10:38;5.43;;;2.25;;
58581;SDS011;44361;51.476;5.700;2023-07-16T10:13:06;7.45;;;2.63;;
58581;SDS011;44361;51.476;5.700;2023-07-16T10:15:32;5.85;;;2.70;;
58581;SDS011;44361;51.476;5.700;2023-07-16T10:17:58;7.40;;;2.72;;
58581;SDS011;44361;51.476;5.700;2023-07-16T10:20:33;4.93;;;2.50;;
58581;SDS011;44361;51.476;5.700;2023-07-16T10:23:13;4.57;;;2.47;;
58581;SDS011;44361;51.476;5.700;2023-07-16T10:25:40;4.30;;;2.53;;
58581;SDS011;44361;51.476;5.700;2023-07-16T10:28:25;6.13;;;2.60;;
58581;SDS011;44361;51.476;5.700;2023-07-16T10:30:50;6.05;;;2.10;;
58581;SDS011;44361;51.476;5.700;2023-07-16T10:33:16;7.38;;;2.90;;
58581;SDS011;44361;51.476;5.700;2023-07-16T10:35:42;7.30;;;2.65;;
58581;SDS011;44361;51.476;5.700;2023-07-16T10:38:09;6.93;;;2.75;;
58581;SDS011;44361;51.476;5.700;2023-07-16T10:40:40;11.48;;;3.65;;
58581;SDS011;44361;51.476;5.700;2023-07-16T10:43:06;6.55;;;2.53;;
58581;SDS011;44361;51.476;5.700;2023-07-16T10:45:32;6.10;;;2.25;;
58581;SDS011;44361;51.476;5.700;2023-07-16T10:47:57;7.60;;;3.13;;
58581;SDS011;44361;51.476;5.700;2023-07-16T10:50:23;7.72;;;2.90;;
58581;SDS011;44361;51.476;5.700;2023-07-16T10:52:55;8.90;;;2.85;;
58581;SDS011;44361;51.476;5.700;2023-07-16T10:55:25;20.67;;;3.55;;
58581;SDS011;44361;51.476;5.700;2023-07-16T10:58:09;7.13;;;3.47;;
58581;SDS011;44361;51.476;5.700;2023-07-16T11:00:36;6.97;;;3.08;;
58581;SDS011;44361;51.476;5.700;2023-07-16T11:03:04;7.93;;;3.10;;
58581;SDS011;44361;51.476;5.700;2023-07-16T11:05:30;6.93;;;2.65;;
58581;SDS011;44361;51.476;5.700;2023-07-16T11:07:56;7.03;;;2.97;;
58581;SDS011;44361;51.476;5.700;2023-07-16T11:10:23;8.32;;;2.70;;
58581;SDS011;44361;51.476;5.700;2023-07-16T11:12:53;6.10;;;2.50;;
58581;SDS011;44361;51.476;5.700;2023-07-16T11:15:18;7.47;;;3.10;;
58581;SDS011;44361;51.476;5.700;2023-07-16T11:17:54;6.80;;;3.50;;
58581;SDS011;44361;51.476;5.700;2023-07-16T11:20:20;7.95;;;3.17;;
58581;SDS011;44361;51.476;5.700;2023-07-16T11:22:46;7.25;;;2.95;;
58581;SDS011;44361;51.476;5.700;2023-07-16T11:25:12;6.55;;;2.78;;
58581;SDS011;44361;51.476;5.700;2023-07-16T11:27:39;5.93;;;2.90;;
58581;SDS011;44361;51.476;5.700;2023-07-16T11:30:06;5.30;;;2.75;;
58581;SDS011;44361;51.476;5.700;2023-07-16T11:32:33;8.63;;;3.05;;
58581;SDS011;44361;51.476;5.700;2023-07-16T11:35:15;4.47;;;2.63;;
58581;SDS011;44361;51.476;5.700;2023-07-16T11:37:42;6.30;;;3.20;;
58581;SDS011;44361;51.476;5.700;2023-07-16T11:40:08;8.30;;;2.95;;
58581;SDS011;44361;51.476;5.700;2023-07-16T11:42:38;8.55;;;2.67;;
58581;SDS011;44361;51.476;5.700;2023-07-16T11:45:05;8.13;;;3.08;;
58581;SDS011;44361;51.476;5.700;2023-07-16T11:47:41;8.48;;;2.80;;
58581;SDS011;44361;51.476;5.700;2023-07-16T11:50:07;6.30;;;2.85;;
58581;SDS011;44361;51.476;5.700;2023-07-16T11:52:33;6.43;;;3.00;;
58581;SDS011;44361;51.476;5.700;2023-07-16T11:54:59;7.35;;;2.90;;
58581;SDS011;44361;51.476;5.700;2023-07-16T11:57:25;8.32;;;2.78;;
58581;SDS011;44361;51.476;5.700;2023-07-16T11:59:51;8.27;;;2.92;;
58581;SDS011;44361;51.476;5.700;2023-07-16T12:02:16;5.60;;;2.45;;
58581;SDS011;44361;51.476;5.700;2023-07-16T12:04:42;7.53;;;2.55;;
58581;SDS011;44361;51.476;5.700;2023-07-16T12:07:08;6.53;;;3.17;;
58581;SDS011;44361;51.476;5.700;2023-07-16T12:09:33;9.05;;;3.47;;
58581;SDS011;44361;51.476;5.700;2023-07-16T12:11:59;8.32;;;3.03;;
58581;SDS011;44361;51.476;5.700;2023-07-16T12:14:25;5.93;;;3.15;;
58581;SDS011;44361;51.476;5.700;2023-07-16T12:16:51;7.88;;;2.72;;
58581;SDS011;44361;51.476;5.700;2023-07-16T12:19:17;7.68;;;3.22;;
58581;SDS011;44361;51.476;5.700;2023-07-16T12:21:42;5.97;;;2.80;;
58581;SDS011;44361;51.476;5.700;2023-07-16T12:24:08;5.88;;;3.40;;
58581;SDS011;44361;51.476;5.700;2023-07-16T12:26:33;7.35;;;3.10;;
58581;SDS011;44361;51.476;5.700;2023-07-16T12:29:00;5.03;;;3.10;;
58581;SDS011;44361;51.476;5.700;2023-07-16T12:31:29;5.88;;;2.80;;
58581;SDS011;44361;51.476;5.700;2023-07-16T12:33:56;7.35;;;3.30;;
58581;SDS011;44361;51.476;5.700;2023-07-16T12:36:22;7.45;;;2.80;;
58581;SDS011;44361;51.476;5.700;2023-07-16T12:38:47;6.45;;;2.90;;
58581;SDS011;44361;51.476;5.700;2023-07-16T12:41:13;8.65;;;3.20;;
58581;SDS011;44361;51.476;5.700;2023-07-16T12:43:40;7.60;;;3.60;;
58581;SDS011;44361;51.476;5.700;2023-07-16T12:46:05;6.75;;;2.78;;
58581;SDS011;44361;51.476;5.700;2023-07-16T12:48:31;8.77;;;3.22;;
58581;SDS011;44361;51.476;5.700;2023-07-16T12:50:57;7.40;;;3.30;;
58581;SDS011;44361;51.476;5.700;2023-07-16T12:53:23;6.53;;;3.28;;
58581;SDS011;44361;51.476;5.700;2023-07-16T12:55:49;8.90;;;3.17;;
58581;SDS011;44361;51.476;5.700;2023-07-16T12:58:15;11.00;;;2.70;;
58581;SDS011;44361;51.476;5.700;2023-07-16T13:00:40;7.07;;;2.97;;
58581;SDS011;44361;51.476;5.700;2023-07-16T13:03:06;7.97;;;2.95;;
58581;SDS011;44361;51.476;5.700;2023-07-16T13:05:36;6.28;;;2.90;;
58581;SDS011;44361;51.476;5.700;2023-07-16T13:08:02;7.15;;;3.30;;
58581;SDS011;44361;51.476;5.700;2023-07-16T13:10:28;5.88;;;2.72;;
58581;SDS011;44361;51.476;5.700;2023-07-16T13:12:53;9.18;;;2.92;;
58581;SDS011;44361;51.476;5.700;2023-07-16T13:15:19;6.10;;;2.83;;
58581;SDS011;44361;51.476;5.700;2023-07-16T13:17:45;8.95;;;3.47;;
58581;SDS011;44361;51.476;5.700;2023-07-16T13:20:12;5.95;;;2.67;;
58581;SDS011;44361;51.476;5.700;2023-07-16T13:22:37;7.05;;;3.13;;
58581;SDS011;44361;51.476;5.700;2023-07-16T13:25:03;7.10;;;2.92;;
58581;SDS011;44361;51.476;5.700;2023-07-16T13:27:29;6.55;;;3.22;;
58581;SDS011;44361;51.476;5.700;2023-07-16T13:29:54;8.50;;;2.90;;
58581;SDS011;44361;51.476;5.700;2023-07-16T13:32:20;7.07;;;3.03;;
58581;SDS011;44361;51.476;5.700;2023-07-16T13:34:45;8.02;;;3.28;;
58581;SDS011;44361;51.476;5.700;2023-07-16T13:37:11;7.97;;;3.00;;
58581;SDS011;44361;51.476;5.700;2023-07-16T13:39:36;6.13;;;2.90;;
58581;SDS011;44361;51.476;5.700;2023-07-16T13:42:02;5.63;;;2.50;;
58581;SDS011;44361;51.476;5.700;2023-07-16T13:44:28;7.05;;;2.47;;
58581;SDS011;44361;51.476;5.700;2023-07-16T13:46:53;6.43;;;2.58;;
58581;SDS011;44361;51.476;5.700;2023-07-16T13:49:19;8.68;;;2.80;;
58581;SDS011;44361;51.476;5.700;2023-07-16T13:51:44;6.43;;;2.90;;
58581;SDS011;44361;51.476;5.700;2023-07-16T13:54:13;5.05;;;2.80;;
58581;SDS011;44361;51.476;5.700;2023-07-16T13:56:38;6.63;;;2.67;;
58581;SDS011;44361;51.476;5.700;2023-07-16T13:59:04;5.78;;;2.67;;
58581;SDS011;44361;51.476;5.700;2023-07-16T14:01:29;7.22;;;2.75;;
58581;SDS011;44361;51.476;5.700;2023-07-16T14:03:55;5.80;;;2.67;;
58581;SDS011;44361;51.476;5.700;2023-07-16T14:06:20;5.65;;;2.55;;
58581;SDS011;44361;51.476;5.700;2023-07-16T14:08:46;7.25;;;2.53;;
58581;SDS011;44361;51.476;5.700;2023-07-16T14:11:12;5.95;;;2.80;;
58581;SDS011;44361;51.476;5.700;2023-07-16T14:13:38;6.43;;;2.83;;
58581;SDS011;44361;51.476;5.700;2023-07-16T14:16:03;5.93;;;2.45;;
58581;SDS011;44361;51.476;5.700;2023-07-16T14:18:30;7.90;;;2.78;;
58581;SDS011;44361;51.476;5.700;2023-07-16T14:20:56;6.63;;;2.70;;
58581;SDS011;44361;51.476;5.700;2023-07-16T14:23:21;6.78;;;3.05;;
58581;SDS011;44361;51.476;5.700;2023-07-16T14:25:47;6.43;;;2.88;;
58581;SDS011;44361;51.476;5.700;2023-07-16T14:28:12;5.10;;;3.00;;
58581;SDS011;44361;51.476;5.700;2023-07-16T14:30:38;7.20;;;2.92;;
58581;SDS011;44361;51.476;5.700;2023-07-16T14:33:03;5.93;;;2.78;;
58581;SDS011;44361;51.476;5.700;2023-07-16T14:35:30;5.30;;;2.40;;
58581;SDS011;44361;51.476;5.700;2023-07-16T14:37:58;4.57;;;2.00;;
58581;SDS011;44361;51.476;5.700;2023-07-16T14:40:24;5.45;;;2.95;;
58581;SDS011;44361;51.476;5.700;2023-07-16T14:42:49;3.85;;;2.40;;